Time;durP1;ratioP1;P1;durP2;ratioP2;P2;SDS_P1;SDS_P2;PMS_P1;PMS_P2;Temp;Humidity;BMP_temperature;BMP_pressure;BME280_temperature;BME280_humidity;BME280_pressure;Samples;Min_cycle;Max_cycle;Signal;HPM_P1;HPM_P2
2022/04/08 04:01:03;;;;;;;4.40;1.57;;;8.70;99.90;;;;;;5684575;23;20909;-67
2022/04/08 04:03:30;;;;;;;3.43;1.50;;;8.70;99.90;;;;;;4985660;28;20457;-67
2022/04/08 04:05:57;;;;;;;7.30;1.70;;;8.80;99.90;;;;;;4999464;28;20538;-68
2022/04/08 04:08:23;;;;;;;3.23;1.30;;;8.80;99.90;;;;;;5000493;28;20443;-68
2022/04/08 04:10:50;;;;;;;7.37;1.50;;;8.80;99.90;;;;;;4982374;28;20467;-67
2022/04/08 04:13:17;;;;;;;7.90;1.70;;;8.80;99.90;;;;;;4979868;28;20549;-68
2022/04/08 04:15:44;;;;;;;5.40;1.20;;;8.80;99.90;;;;;;4979835;28;20489;-68
2022/04/08 04:18:12;;;;;;;4.87;1.60;;;8.80;99.90;;;;;;4979442;28;20464;-68
2022/04/08 04:20:39;;;;;;;5.50;1.83;;;8.80;99.90;;;;;;4979305;28;21013;-68
2022/04/08 04:23:05;;;;;;;5.53;1.40;;;8.80;99.90;;;;;;4980064;28;20466;-69
2022/04/08 04:25:32;;;;;;;2.60;1.13;;;8.80;99.90;;;;;;4979929;28;20483;-68
2022/04/08 04:27:59;;;;;;;6.00;1.60;;;8.80;99.90;;;;;;4980933;28;20458;-67
2022/04/08 04:30:27;;;;;;;4.97;1.43;;;8.70;99.90;;;;;;4988968;28;20482;-67
2022/04/08 04:32:55;;;;;;;8.63;2.00;;;8.70;99.90;;;;;;4986747;28;20459;-67
2022/04/08 04:35:23;;;;;;;5.07;1.63;;;8.70;99.90;;;;;;4979446;28;20462;-68
2022/04/08 04:37:50;;;;;;;5.77;1.60;;;8.70;99.90;;;;;;4979981;28;20451;-68
2022/04/08 04:40:16;;;;;;;6.03;1.43;;;8.70;99.90;;;;;;4978206;28;20454;-67
2022/04/08 04:42:43;;;;;;;3.10;1.57;;;8.70;99.90;;;;;;4978839;28;20454;-67
2022/04/08 04:45:13;;;;;;;7.53;2.00;;;8.70;99.90;;;;;;4981950;28;20510;-68
2022/04/08 04:47:40;;;;;;;8.50;2.53;;;8.80;99.90;;;;;;4981091;28;20931;-68
2022/04/08 04:50:07;;;;;;;2.00;1.23;;;8.80;99.90;;;;;;4978842;28;20818;-68
2022/04/08 04:52:35;;;;;;;9.10;2.60;;;8.80;99.90;;;;;;4979080;28;20490;-69
2022/04/08 04:55:03;;;;;;;7.27;2.20;;;8.80;99.90;;;;;;4979914;28;20498;-68
2022/04/08 04:57:29;;;;;;;7.13;1.73;;;8.80;99.90;;;;;;4979140;28;20527;-68
2022/04/08 04:59:56;;;;;;;6.80;1.50;;;8.90;99.90;;;;;;4979102;28;20466;-67
2022/04/08 05:02:23;;;;;;;4.23;2.07;;;8.90;99.90;;;;;;4978262;28;20489;-67
2022/04/08 05:04:49;;;;;;;6.40;2.40;;;8.90;99.90;;;;;;4977357;28;20792;-68
2022/04/08 05:07:16;;;;;;;6.73;1.77;;;9.00;99.90;;;;;;4977748;28;20521;-69
2022/04/08 05:09:44;;;;;;;5.87;1.80;;;9.00;99.90;;;;;;4978041;28;20459;-69
2022/04/08 05:12:11;;;;;;;6.83;1.50;;;9.00;99.90;;;;;;4977526;28;20475;-68
2022/04/08 05:14:38;;;;;;;7.87;1.50;;;9.00;99.90;;;;;;4977614;28;20527;-69
2022/04/08 05:17:05;;;;;;;5.97;1.57;;;9.00;99.90;;;;;;4977792;28;20454;-69
2022/04/08 05:19:32;;;;;;;5.67;2.50;;;9.10;99.90;;;;;;4977535;28;20482;-69
2022/04/08 05:21:59;;;;;;;3.00;1.63;;;9.10;99.90;;;;;;4977435;28;20482;-66
2022/04/08 05:24:25;;;;;;;4.10;1.30;;;9.10;99.90;;;;;;4977348;28;20458;-67
2022/04/08 05:26:53;;;;;;;8.73;2.20;;;9.10;99.90;;;;;;4977530;28;20462;-68
2022/04/08 05:29:20;;;;;;;4.50;2.47;;;9.10;99.90;;;;;;4978206;28;20450;-69
2022/04/08 05:31:47;;;;;;;4.47;1.70;;;9.20;99.90;;;;;;4977334;28;20565;-68
2022/04/08 05:34:14;;;;;;;4.53;1.67;;;9.20;99.90;;;;;;4976814;28;20533;-68
2022/04/08 05:36:40;;;;;;;2.83;1.67;;;9.20;99.90;;;;;;4978732;28;20466;-68
2022/04/08 05:39:07;;;;;;;4.27;1.80;;;9.30;99.90;;;;;;4981058;28;20455;-69
2022/04/08 05:41:34;;;;;;;5.80;1.70;;;9.30;99.90;;;;;;4986415;28;20481;-68
2022/04/08 05:44:02;;;;;;;4.50;1.50;;;9.30;99.90;;;;;;4984419;28;20459;-69
2022/04/08 05:46:29;;;;;;;6.00;1.50;;;9.30;99.90;;;;;;4980037;28;21001;-69
2022/04/08 05:48:55;;;;;;;5.17;2.00;;;9.30;99.90;;;;;;4978228;28;20942;-68
2022/04/08 05:51:22;;;;;;;7.70;1.90;;;9.30;99.90;;;;;;4980380;28;20482;-68
2022/04/08 05:53:49;;;;;;;5.27;2.10;;;9.30;99.90;;;;;;4978955;28;20459;-68
2022/04/08 05:56:15;;;;;;;4.43;1.63;;;9.30;99.90;;;;;;4979949;28;20818;-69
2022/04/08 05:58:42;;;;;;;2.50;1.30;;;9.40;99.90;;;;;;4981542;28;20459;-68
2022/04/08 06:01:11;;;;;;;7.90;1.93;;;9.40;99.90;;;;;;4979986;28;20486;-68
2022/04/08 06:03:37;;;;;;;8.63;2.53;;;9.40;99.90;;;;;;4978326;28;20484;-69
2022/04/08 06:06:04;;;;;;;4.93;1.77;;;9.50;99.90;;;;;;4975917;28;20475;-69
2022/04/08 06:08:31;;;;;;;8.70;2.00;;;9.50;99.90;;;;;;4977562;28;20513;-68
2022/04/08 06:10:58;;;;;;;4.37;1.63;;;9.50;99.90;;;;;;4976868;28;20807;-67
2022/04/08 06:13:26;;;;;;;6.00;1.50;;;9.60;99.90;;;;;;4976896;28;20462;-68
2022/04/08 06:15:53;;;;;;;4.53;1.20;;;9.60;99.90;;;;;;4978427;28;20465;-68
2022/04/08 06:18:21;;;;;;;5.07;1.80;;;9.60;99.90;;;;;;4981050;28;20454;-68
2022/04/08 06:20:48;;;;;;;7.13;1.50;;;9.80;99.90;;;;;;4978364;28;20842;-69
2022/04/08 06:23:15;;;;;;;5.73;2.17;;;9.80;99.90;;;;;;4975474;28;20446;-69
2022/04/08 06:25:42;;;;;;;4.20;2.07;;;9.80;99.90;;;;;;4975585;28;20470;-69
2022/04/08 06:28:09;;;;;;;3.63;1.33;;;9.80;99.90;;;;;;4976510;28;20462;-67
2022/04/08 06:30:37;;;;;;;1.33;0.97;;;9.70;99.90;;;;;;4976908;28;20486;-66
2022/04/08 06:33:05;;;;;;;3.83;1.60;;;9.60;99.90;;;;;;4975900;28;20502;-66
2022/04/08 06:35:34;;;;;;;7.20;1.43;;;9.40;99.90;;;;;;4975919;28;20455;-66
2022/04/08 06:38:01;;;;;;;3.53;1.43;;;9.40;99.90;;;;;;4975861;28;20491;-66
2022/04/08 06:40:28;;;;;;;2.97;1.03;;;9.40;99.90;;;;;;4975520;28;20806;-67
2022/04/08 06:42:55;;;;;;;3.80;1.37;;;9.40;99.90;;;;;;4975681;28;20459;-66
2022/04/08 06:45:23;;;;;;;4.57;1.37;;;9.40;99.90;;;;;;4975601;28;20475;-66
2022/04/08 06:47:50;;;;;;;2.63;1.30;;;9.30;99.90;;;;;;4975603;28;20502;-67
2022/04/08 06:50:18;;;;;;;3.10;1.87;;;9.40;99.90;;;;;;4975980;28;20454;-66
2022/04/08 06:52:47;;;;;;;4.33;1.30;;;9.40;99.90;;;;;;4975823;28;20466;-66
2022/04/08 06:55:14;;;;;;;6.00;1.37;;;9.40;99.90;;;;;;4975540;28;20458;-66
2022/04/08 06:57:41;;;;;;;7.40;2.30;;;9.40;99.90;;;;;;4975407;28;20458;-66
2022/04/08 07:00:10;;;;;;;7.20;1.77;;;9.50;99.90;;;;;;4974902;28;20463;-67
2022/04/08 07:02:37;;;;;;;5.63;1.57;;;9.50;99.90;;;;;;4975186;28;20473;-66
2022/04/08 07:05:05;;;;;;;3.33;1.70;;;9.50;99.90;;;;;;4976338;28;20482;-67
2022/04/08 07:07:33;;;;;;;3.33;1.33;;;9.50;99.90;;;;;;4979894;28;20459;-66
2022/04/08 07:10:01;;;;;;;2.83;1.50;;;9.50;99.90;;;;;;4978897;28;20461;-67
2022/04/08 07:12:28;;;;;;;3.70;1.20;;;9.40;99.90;;;;;;4978844;28;20558;-66
2022/04/08 07:14:55;;;;;;;2.40;1.20;;;9.30;99.90;;;;;;4979541;28;20489;-66
2022/04/08 07:17:28;;;;;;;3.77;1.33;;;9.30;99.90;;;;;;4978921;28;20461;-66
2022/04/08 07:19:55;;;;;;;2.00;1.30;;;9.30;99.90;;;;;;4985603;28;20489;-66
2022/04/08 07:22:22;;;;;;;2.07;1.50;;;9.10;99.90;;;;;;4987161;28;20470;-66
2022/04/08 07:24:49;;;;;;;3.87;1.20;;;9.00;99.90;;;;;;4980078;28;20458;-66
2022/04/08 07:27:18;;;;;;;1.33;1.13;;;9.00;99.90;;;;;;4979177;28;20889;-66
2022/04/08 07:29:44;;;;;;;4.07;1.40;;;8.90;99.90;;;;;;4978997;28;20509;-67
2022/04/08 07:32:11;;;;;;;4.30;1.30;;;8.90;99.90;;;;;;4978473;28;20886;-66
2022/04/08 07:34:39;;;;;;;2.10;1.30;;;8.90;99.90;;;;;;4979027;28;20458;-66
2022/04/08 07:37:08;;;;;;;7.20;2.10;;;8.80;99.90;;;;;;4978956;28;20453;-66
2022/04/08 07:39:37;;;;;;;3.50;1.70;;;8.80;99.90;;;;;;4979108;28;20465;-66
2022/04/08 07:42:04;;;;;;;3.07;1.67;;;8.70;99.90;;;;;;4981440;28;20881;-65
2022/04/08 07:44:32;;;;;;;3.10;2.80;;;8.50;99.90;;;;;;4979880;28;20482;-66
2022/04/08 07:46:58;;;;;;;3.33;1.83;;;8.30;99.90;;;;;;4979151;28;20845;-66
2022/04/08 07:49:25;;;;;;;1.23;1.00;;;8.20;99.90;;;;;;4978985;28;20462;-66
2022/04/08 07:51:52;;;;;;;1.70;1.10;;;8.10;99.90;;;;;;4978926;28;20482;-67
2022/04/08 07:54:18;;;;;;;1.40;0.83;;;8.00;99.90;;;;;;4978936;28;20489;-67
2022/04/08 07:56:45;;;;;;;4.13;1.17;;;7.90;99.90;;;;;;4978661;28;20462;-65
2022/04/08 07:59:12;;;;;;;0.90;0.90;;;7.80;99.90;;;;;;4978663;28;20461;-65
2022/04/08 08:01:40;;;;;;;6.03;1.00;;;7.70;99.90;;;;;;4978992;28;20528;-65
2022/04/08 08:04:07;;;;;;;2.77;0.93;;;7.80;99.90;;;;;;4999852;28;20486;-66
2022/04/08 08:06:34;;;;;;;1.80;1.10;;;7.90;99.90;;;;;;4988431;28;20479;-67
2022/04/08 08:09:00;;;;;;;2.20;1.30;;;7.90;99.90;;;;;;4979421;28;20439;-68
2022/04/08 08:11:27;;;;;;;2.17;0.90;;;7.90;99.90;;;;;;4978337;28;21036;-67
2022/04/08 08:13:54;;;;;;;1.73;1.23;;;7.90;99.90;;;;;;4978078;28;20454;-67
2022/04/08 08:16:21;;;;;;;1.10;0.87;;;7.90;99.90;;;;;;4977319;28;20458;-67
2022/04/08 08:18:52;;;;;;;1.13;1.03;;;7.90;99.90;;;;;;4977699;28;20534;-67
2022/04/08 08:21:19;;;;;;;1.40;1.13;;;7.90;99.90;;;;;;4977518;28;21032;-67
2022/04/08 08:23:45;;;;;;;2.63;1.20;;;8.00;99.90;;;;;;4977745;28;20459;-67
2022/04/08 08:26:13;;;;;;;2.10;1.07;;;8.10;99.90;;;;;;4977922;28;20475;-66
2022/04/08 08:28:40;;;;;;;3.27;1.23;;;8.00;99.90;;;;;;4977620;28;20459;-67
2022/04/08 08:31:07;;;;;;;3.03;0.90;;;8.10;99.90;;;;;;4978685;28;20817;-67
2022/04/08 08:33:34;;;;;;;4.17;1.40;;;8.10;99.90;;;;;;4978327;28;20515;-67
2022/04/08 08:36:02;;;;;;;2.37;1.50;;;8.20;99.90;;;;;;4977721;28;20478;-68
2022/04/08 08:38:28;;;;;;;3.23;1.10;;;8.20;99.90;;;;;;4977610;28;20939;-67
2022/04/08 08:40:56;;;;;;;1.57;1.10;;;8.30;99.90;;;;;;4977445;28;20475;-67
2022/04/08 08:43:23;;;;;;;3.50;1.00;;;8.40;99.90;;;;;;4977585;28;20459;-67
2022/04/08 08:45:50;;;;;;;3.33;1.00;;;8.40;99.90;;;;;;4977316;28;20474;-67
2022/04/08 08:48:17;;;;;;;1.77;1.30;;;8.50;99.90;;;;;;4977625;28;20447;-68
2022/04/08 08:50:47;;;;;;;1.70;0.90;;;8.50;99.90;;;;;;4977925;28;20555;-66
2022/04/08 08:53:19;;;;;;;1.07;0.90;;;8.50;99.90;;;;;;4983852;28;20451;-67
2022/04/08 08:55:48;;;;;;;2.60;1.43;;;8.50;99.90;;;;;;4977356;28;20443;-66
2022/04/08 08:58:15;;;;;;;1.90;1.27;;;8.40;99.90;;;;;;4977529;28;20455;-67
2022/04/08 09:00:42;;;;;;;5.30;1.17;;;8.50;99.90;;;;;;4977011;28;20913;-67
2022/04/08 09:03:09;;;;;;;1.70;1.20;;;8.50;99.90;;;;;;4977339;28;20439;-67
2022/04/08 09:05:47;;;;;;;4.23;2.20;;;8.50;99.90;;;;;;4977160;28;20454;-67
2022/04/08 09:08:14;;;;;;;4.57;1.20;;;8.40;99.90;;;;;;4977040;28;20439;-67
2022/04/08 09:10:45;;;;;;;2.27;1.50;;;8.40;99.90;;;;;;4977006;28;20502;-67
2022/04/08 09:13:16;;;;;;;1.57;1.37;;;8.40;99.90;;;;;;4977405;28;20443;-67
2022/04/08 09:15:53;;;;;;;2.47;1.10;;;8.40;99.90;;;;;;4977578;28;20804;-67
2022/04/08 09:18:20;;;;;;;3.07;1.13;;;8.50;99.90;;;;;;4977060;28;20493;-67
2022/04/08 09:20:49;;;;;;;4.63;1.50;;;8.40;99.90;;;;;;4977267;28;20557;-66
2022/04/08 09:23:17;;;;;;;4.03;1.40;;;8.40;99.90;;;;;;4977366;28;20483;-66
2022/04/08 09:25:47;;;;;;;2.00;1.03;;;8.40;99.90;;;;;;4977088;28;20939;-67
2022/04/08 09:28:16;;;;;;;3.23;1.07;;;8.40;99.90;;;;;;4976305;28;20942;-66
2022/04/08 09:30:52;;;;;;;2.63;1.30;;;8.50;99.90;;;;;;4976888;28;20479;-67
2022/04/08 09:33:20;;;;;;;1.50;1.30;;;8.50;99.90;;;;;;4978626;28;20447;-66
2022/04/08 09:35:49;;;;;;;1.53;1.07;;;8.60;99.90;;;;;;4976921;28;20553;-66
2022/04/08 09:38:19;;;;;;;1.60;1.30;;;8.60;99.90;;;;;;4977261;28;20469;-66
2022/04/08 09:40:48;;;;;;;1.50;1.37;;;8.60;99.90;;;;;;4979867;28;20482;-67
2022/04/08 09:43:15;;;;;;;1.60;1.50;;;8.60;99.90;;;;;;4987873;28;20455;-67
2022/04/08 09:45:43;;;;;;;1.70;1.10;;;8.60;99.90;;;;;;4985233;28;20482;-67
2022/04/08 09:48:10;;;;;;;1.40;1.30;;;8.60;99.90;;;;;;4976482;28;20513;-66
2022/04/08 09:50:39;;;;;;;1.63;0.90;;;8.50;99.90;;;;;;4976401;28;20486;-66
2022/04/08 09:53:07;;;;;;;1.77;1.10;;;8.50;99.90;;;;;;4977407;28;20455;-66
2022/04/08 09:55:36;;;;;;;2.03;1.20;;;8.40;99.90;;;;;;4977201;28;20459;-66
2022/04/08 09:58:08;;;;;;;1.40;0.80;;;8.40;99.90;;;;;;4976559;28;20461;-66
2022/04/08 10:00:36;;;;;;;1.50;1.40;;;8.30;99.90;;;;;;4976096;28;20493;-66
2022/04/08 10:03:03;;;;;;;0.97;0.90;;;8.30;99.90;;;;;;4976276;28;20562;-66
2022/04/08 10:05:31;;;;;;;1.63;0.70;;;8.30;99.90;;;;;;4976559;28;20462;-67
2022/04/08 10:07:58;;;;;;;0.70;0.70;;;8.20;99.90;;;;;;4976907;28;20960;-66
2022/04/08 10:10:30;;;;;;;0.60;0.60;;;8.20;99.90;;;;;;4976138;28;20896;-66
2022/04/08 10:13:22;;;;;;;1.50;0.50;;;8.10;99.90;;;;;;4985149;28;20447;-67
2022/04/08 10:16:02;;;;;;;1.27;0.90;;;8.20;99.90;;;;;;4996859;28;20431;-66
2022/04/08 10:18:34;;;;;;;0.60;0.60;;;8.20;99.90;;;;;;4998251;28;20511;-66
2022/04/08 10:21:01;;;;;;;0.87;0.87;;;8.20;99.90;;;;;;4983690;28;20507;-67
2022/04/08 10:23:36;;;;;;;0.63;0.63;;;8.30;99.90;;;;;;4976835;28;20459;-65
2022/04/08 10:26:04;;;;;;;4.97;1.00;;;8.30;99.90;;;;;;4978255;28;20470;-65
2022/04/08 10:28:37;;;;;;;0.67;0.67;;;8.30;99.90;;;;;;4976683;28;20466;-66
2022/04/08 10:31:15;;;;;;;1.87;1.03;;;8.40;99.90;;;;;;4975620;28;21005;-65
2022/04/08 10:33:47;;;;;;;1.37;0.83;;;8.40;99.90;;;;;;4976380;28;20466;-67
2022/04/08 10:36:14;;;;;;;1.90;1.03;;;8.50;99.90;;;;;;4975962;28;20439;-67
2022/04/08 10:38:41;;;;;;;1.47;1.00;;;8.60;99.90;;;;;;4975889;28;20463;-66
2022/04/08 10:41:09;;;;;;;1.07;0.87;;;8.50;99.90;;;;;;4978424;28;20478;-68
2022/04/08 10:43:44;;;;;;;0.93;0.80;;;8.40;99.90;;;;;;4979664;28;20459;-66
2022/04/08 10:46:12;;;;;;;0.77;0.70;;;8.50;99.90;;;;;;4979766;28;20474;-67
2022/04/08 10:48:39;;;;;;;0.90;0.80;;;8.50;99.90;;;;;;4980466;28;20501;-66
2022/04/08 10:51:07;;;;;;;1.07;1.03;;;8.50;99.90;;;;;;4979922;28;20551;-66
2022/04/08 10:53:34;;;;;;;0.50;0.50;;;8.50;99.90;;;;;;4979712;28;20865;-68
2022/04/08 10:56:10;;;;;;;1.90;0.97;;;8.40;99.90;;;;;;4979990;28;20521;-67
2022/04/08 10:58:41;;;;;;;0.93;0.90;;;8.40;99.90;;;;;;4982341;28;20443;-67
2022/04/08 11:01:20;;;;;;;1.17;1.13;;;8.50;99.90;;;;;;5001771;28;20479;-67
2022/04/08 11:03:54;;;;;;;1.50;0.90;;;8.30;99.90;;;;;;4987383;28;20478;-67
2022/04/08 11:06:20;;;;;;;2.17;0.90;;;8.30;99.90;;;;;;4981371;28;20467;-67
2022/04/08 11:08:47;;;;;;;2.60;1.20;;;8.40;99.90;;;;;;4979918;28;20462;-67
2022/04/08 11:11:14;;;;;;;1.00;1.00;;;8.40;99.90;;;;;;4979925;28;20471;-67
2022/04/08 11:13:42;;;;;;;1.10;1.00;;;8.40;99.90;;;;;;4979719;28;20455;-67
2022/04/08 11:16:08;;;;;;;1.63;1.10;;;8.50;99.90;;;;;;4979527;28;20454;-67
2022/04/08 11:18:37;;;;;;;1.20;1.00;;;8.50;99.90;;;;;;4979809;28;20459;-67
2022/04/08 11:21:03;;;;;;;3.13;1.10;;;8.50;99.90;;;;;;4979751;28;21001;-67
2022/04/08 11:23:32;;;;;;;2.00;0.80;;;8.50;99.90;;;;;;4979422;28;20461;-67
2022/04/08 11:25:59;;;;;;;0.90;0.90;;;8.60;99.90;;;;;;4979596;28;20455;-68
2022/04/08 11:28:26;;;;;;;1.70;1.17;;;8.50;99.90;;;;;;4980419;28;20485;-68
2022/04/08 11:30:57;;;;;;;0.80;0.80;;;8.50;99.90;;;;;;4979411;28;20479;-67
2022/04/08 11:33:24;;;;;;;1.13;1.00;;;8.50;99.90;;;;;;4979525;28;20939;-68
2022/04/08 11:35:58;;;;;;;1.27;1.17;;;8.40;99.90;;;;;;4979502;28;20489;-70
2022/04/08 11:38:28;;;;;;;1.40;1.30;;;8.60;99.90;;;;;;4979675;28;20915;-69
2022/04/08 11:40:55;;;;;;;2.60;0.93;;;8.80;99.90;;;;;;4979473;28;20479;-70
2022/04/08 11:43:22;;;;;;;1.13;1.13;;;9.10;99.90;;;;;;4979345;28;20458;-70
2022/04/08 11:45:51;;;;;;;1.17;1.07;;;9.20;99.90;;;;;;4979604;28;20446;-70
2022/04/08 11:48:20;;;;;;;1.00;1.00;;;9.50;99.90;;;;;;4979851;28;20486;-70
2022/04/08 11:50:48;;;;;;;0.90;0.90;;;9.60;99.90;;;;;;4979144;28;20510;-70
2022/04/08 11:53:17;;;;;;;1.10;1.10;;;9.70;99.90;;;;;;4979013;28;20459;-70
2022/04/08 11:55:54;;;;;;;0.80;0.80;;;9.70;99.90;;;;;;4978896;28;20458;-70
2022/04/08 11:58:21;;;;;;;1.33;1.13;;;9.70;99.90;;;;;;4978417;28;20454;-68
2022/04/08 12:00:49;;;;;;;1.13;1.07;;;9.60;99.90;;;;;;4978544;28;20953;-68
2022/04/08 12:03:21;;;;;;;1.13;1.13;;;9.40;99.90;;;;;;4978946;28;20538;-69
2022/04/08 12:05:48;;;;;;;2.00;1.30;;;9.20;99.90;;;;;;4980265;28;20478;-68
2022/04/08 12:08:18;;;;;;;0.77;0.70;;;9.10;99.90;;;;;;4978452;28;20467;-68
2022/04/08 12:10:45;;;;;;;1.00;1.00;;;9.00;99.90;;;;;;4978080;28;20981;-69
2022/04/08 12:13:16;;;;;;;1.00;1.00;;;8.70;99.90;;;;;;4978601;28;20494;-68
2022/04/08 12:15:44;;;;;;;1.90;1.80;;;8.60;99.90;;;;;;4978433;28;20458;-68
2022/04/08 12:18:12;;;;;;;2.07;1.87;;;8.50;99.90;;;;;;4977875;28;20439;-68
2022/04/08 12:20:40;;;;;;;2.20;2.00;;;8.40;99.90;;;;;;4977981;28;20850;-68
2022/04/08 12:23:08;;;;;;;2.13;1.93;;;8.30;99.90;;;;;;4979236;28;20439;-67
2022/04/08 12:25:38;;;;;;;1.60;1.50;;;8.30;99.90;;;;;;4978108;28;20451;-68
2022/04/08 12:28:11;;;;;;;1.77;1.67;;;8.30;99.90;;;;;;4978086;28;20482;-68
2022/04/08 12:30:38;;;;;;;2.10;2.00;;;8.30;99.90;;;;;;4977847;28;20506;-69
2022/04/08 12:33:06;;;;;;;2.27;2.17;;;8.30;99.90;;;;;;4978315;28;20951;-68
2022/04/08 12:35:33;;;;;;;2.37;2.10;;;8.40;99.90;;;;;;4977837;28;20495;-68
2022/04/08 12:37:59;;;;;;;1.70;1.60;;;8.50;99.90;;;;;;4977691;28;20882;-69
2022/04/08 12:40:26;;;;;;;2.10;1.60;;;8.40;99.90;;;;;;4977691;28;20463;-68
2022/04/08 12:42:54;;;;;;;1.13;1.10;;;8.30;99.90;;;;;;4981384;28;20459;-68
2022/04/08 12:45:21;;;;;;;1.70;1.60;;;8.30;99.90;;;;;;4988819;28;20482;-67
2022/04/08 12:47:48;;;;;;;1.57;1.47;;;8.20;99.90;;;;;;4985320;28;20506;-68
2022/04/08 12:50:15;;;;;;;3.10;1.87;;;8.10;99.90;;;;;;4977176;28;20454;-68
2022/04/08 12:52:42;;;;;;;1.33;1.23;;;8.20;99.90;;;;;;4977483;28;20466;-67
2022/04/08 12:55:09;;;;;;;1.77;1.67;;;8.20;99.90;;;;;;4977699;28;20463;-67
2022/04/08 12:57:36;;;;;;;1.70;1.60;;;8.30;99.90;;;;;;4977691;28;20818;-67
2022/04/08 13:00:11;;;;;;;1.97;1.87;;;8.30;99.90;;;;;;4977433;28;20949;-67
2022/04/08 13:02:39;;;;;;;4.20;1.90;;;8.30;99.90;;;;;;4976183;28;20557;-67
2022/04/08 13:05:06;;;;;;;2.10;1.50;;;8.30;99.90;;;;;;4977166;28;20447;-67
2022/04/08 13:07:32;;;;;;;1.60;1.50;;;8.30;99.90;;;;;;4977684;28;20515;-66
2022/04/08 13:09:59;;;;;;;2.07;1.47;;;8.30;99.90;;;;;;4977365;28;20458;-68
2022/04/08 13:12:26;;;;;;;1.40;1.30;;;8.20;99.90;;;;;;4977491;28;20479;-68
2022/04/08 13:14:54;;;;;;;1.50;1.50;;;8.10;99.90;;;;;;4977270;28;20934;-67
2022/04/08 13:17:22;;;;;;;1.67;1.67;;;8.10;99.90;;;;;;4977267;28;20451;-67
2022/04/08 13:19:49;;;;;;;2.00;1.83;;;8.10;99.90;;;;;;4976661;28;20451;-68
2022/04/08 13:22:16;;;;;;;2.20;2.00;;;8.00;99.90;;;;;;4976084;28;20525;-67
2022/04/08 13:24:43;;;;;;;1.43;1.43;;;8.00;99.90;;;;;;4976554;28;20518;-67
2022/04/08 13:27:10;;;;;;;1.70;1.60;;;8.00;99.90;;;;;;4976807;28;20511;-67
2022/04/08 13:29:37;;;;;;;1.80;1.80;;;8.00;99.90;;;;;;4977047;28;20470;-67
2022/04/08 13:32:04;;;;;;;1.80;1.70;;;8.10;99.90;;;;;;4976200;28;20818;-67
2022/04/08 13:34:33;;;;;;;1.70;1.60;;;8.10;99.90;;;;;;4976307;28;20459;-67
2022/04/08 13:37:00;;;;;;;2.00;1.90;;;8.00;99.90;;;;;;4976409;28;20459;-66
2022/04/08 13:39:27;;;;;;;4.10;2.07;;;7.90;99.90;;;;;;4976490;28;20545;-68
2022/04/08 13:41:53;;;;;;;2.10;1.87;;;7.80;99.90;;;;;;4976840;28;20479;-67
2022/04/08 13:44:21;;;;;;;2.07;1.87;;;7.70;99.90;;;;;;4976664;28;20462;-67
2022/04/08 13:46:47;;;;;;;6.10;1.80;;;7.70;99.90;;;;;;4976370;28;20549;-67
2022/04/08 13:49:14;;;;;;;2.27;1.90;;;7.60;99.90;;;;;;4976599;28;20459;-67
2022/04/08 13:51:42;;;;;;;2.33;2.23;;;7.50;99.90;;;;;;4977569;28;20474;-66
2022/04/08 13:54:10;;;;;;;2.20;2.10;;;7.50;99.90;;;;;;4984464;28;20454;-67
2022/04/08 13:56:37;;;;;;;2.20;2.10;;;7.50;99.90;;;;;;4975681;28;20932;-67
2022/04/08 13:59:04;;;;;;;3.33;3.03;;;7.40;99.90;;;;;;4976152;28;20466;-67
2022/04/08 14:01:32;;;;;;;3.33;3.17;;;7.30;99.90;;;;;;4976191;28;20562;-66
2022/04/08 14:03:59;;;;;;;3.23;3.13;;;7.20;99.90;;;;;;4995118;28;20431;-68
2022/04/08 14:06:26;;;;;;;5.00;4.70;;;7.20;99.90;;;;;;4984311;28;20455;-68
2022/04/08 14:08:54;;;;;;;5.20;4.90;;;7.20;99.90;;;;;;4976601;28;20483;-67
2022/04/08 14:11:21;;;;;;;5.27;4.97;;;7.20;99.90;;;;;;4975741;28;20470;-68
2022/04/08 14:13:48;;;;;;;5.47;5.07;;;7.20;99.90;;;;;;4975947;28;20958;-67
2022/04/08 14:16:15;;;;;;;4.70;4.40;;;7.20;99.90;;;;;;4975949;28;20458;-67
2022/04/08 14:18:41;;;;;;;5.50;5.10;;;7.20;99.90;;;;;;4975854;28;20946;-67
2022/04/08 14:21:09;;;;;;;6.27;5.67;;;7.20;99.90;;;;;;4975896;28;20490;-67
2022/04/08 14:23:36;;;;;;;6.73;5.90;;;7.20;99.90;;;;;;4975697;28;20455;-67
2022/04/08 14:26:04;;;;;;;6.47;6.00;;;7.20;99.90;;;;;;4975634;28;20458;-66
2022/04/08 14:28:31;;;;;;;7.30;6.80;;;7.20;99.90;;;;;;4981682;28;20474;-66
2022/04/08 14:30:58;;;;;;;7.53;6.90;;;7.30;99.90;;;;;;4979781;28;20483;-64
2022/04/08 14:33:25;;;;;;;8.00;7.40;;;7.30;99.90;;;;;;4975552;28;20442;-65
2022/04/08 14:35:52;;;;;;;10.37;6.40;;;7.40;99.90;;;;;;4975860;28;20467;-64
2022/04/08 14:38:18;;;;;;;8.70;7.87;;;7.40;99.90;;;;;;4975776;28;20462;-65
2022/04/08 14:40:46;;;;;;;8.83;8.00;;;7.50;99.90;;;;;;4976855;28;20501;-64
2022/04/08 14:43:14;;;;;;;7.87;7.27;;;7.50;99.90;;;;;;4977702;28;20455;-65
2022/04/08 14:45:41;;;;;;;8.40;7.80;;;7.50;99.90;;;;;;4976186;28;20826;-64
2022/04/08 14:48:08;;;;;;;9.47;8.57;;;7.60;99.90;;;;;;4979274;28;20989;-64
2022/04/08 14:50:36;;;;;;;8.73;8.00;;;7.70;99.90;;;;;;4976895;28;20454;-65
2022/04/08 14:53:03;;;;;;;10.83;9.83;;;7.70;99.90;;;;;;4975733;28;20451;-65
2022/04/08 14:55:30;;;;;;;9.13;8.33;;;7.80;99.90;;;;;;4976243;28;20942;-64
2022/04/08 14:57:56;;;;;;;10.70;8.23;;;7.80;99.90;;;;;;4975377;28;20462;-64
2022/04/08 15:00:25;;;;;;;9.30;8.50;;;7.80;99.90;;;;;;4977857;28;20462;-64
2022/04/08 15:02:52;;;;;;;10.17;9.10;;;7.90;99.90;;;;;;4976757;28;20797;-65
2022/04/08 15:05:19;;;;;;;9.60;8.70;;;7.90;99.90;;;;;;4977832;28;20455;-64
2022/04/08 15:07:45;;;;;;;10.07;9.00;;;8.00;99.90;;;;;;4977581;28;20479;-66
2022/04/08 15:10:12;;;;;;;10.23;8.10;;;8.10;99.90;;;;;;4976880;28;20463;-65
2022/04/08 15:12:39;;;;;;;11.70;8.77;;;8.10;99.90;;;;;;4977399;28;20485;-66
2022/04/08 15:15:06;;;;;;;10.00;9.00;;;8.20;99.90;;;;;;4977419;28;20455;-65
2022/04/08 15:17:35;;;;;;;9.07;8.27;;;8.40;99.90;;;;;;4976478;28;20451;-66
2022/04/08 15:20:01;;;;;;;9.00;8.13;;;8.50;99.90;;;;;;4976245;28;20455;-66
2022/04/08 15:22:28;;;;;;;9.10;8.20;;;8.60;99.90;;;;;;4975730;28;20490;-66
2022/04/08 15:24:55;;;;;;;8.63;7.93;;;8.80;99.90;;;;;;4976129;28;20455;-66
2022/04/08 15:27:22;;;;;;;9.73;8.73;;;9.00;99.90;;;;;;4978196;28;20455;-66
2022/04/08 15:29:49;;;;;;;8.83;7.93;;;9.20;99.90;;;;;;4979277;28;20865;-66
2022/04/08 15:32:15;;;;;;;8.97;8.13;;;9.40;99.90;;;;;;4979404;28;20481;-66
2022/04/08 15:34:44;;;;;;;9.57;8.30;;;9.50;99.90;;;;;;4984299;28;20454;-66
2022/04/08 15:37:11;;;;;;;8.97;8.37;;;9.60;99.90;;;;;;4995552;28;20482;-66
2022/04/08 15:39:39;;;;;;;9.85;8.90;;;9.70;99.90;;;;;;4997988;28;20451;-66
2022/04/08 15:42:06;;;;;;;10.93;10.03;;;9.90;99.90;;;;;;4992276;28;20810;-66
2022/04/08 15:44:33;;;;;;;10.57;9.83;;;10.00;99.90;;;;;;4980620;28;20454;-66
2022/04/08 15:46:59;;;;;;;11.00;10.10;;;9.90;99.90;;;;;;4978865;28;20462;-66
2022/04/08 15:49:26;;;;;;;10.80;10.00;;;9.90;99.90;;;;;;4978438;28;20559;-66
2022/04/08 15:51:54;;;;;;;11.87;10.97;;;10.00;99.90;;;;;;4978040;28;20479;-66
2022/04/08 15:54:21;;;;;;;11.07;10.17;;;10.10;99.90;;;;;;4978227;28;20965;-65
2022/04/08 15:56:47;;;;;;;11.67;10.57;;;10.20;99.90;;;;;;4979096;28;20454;-69
2022/04/08 15:59:14;;;;;;;10.67;9.67;;;10.10;99.90;;;;;;4978206;28;20942;-66
2022/04/08 16:01:41;;;;;;;10.60;9.70;;;9.90;99.90;;;;;;4978289;28;20486;-66
2022/04/08 16:04:08;;;;;;;11.03;10.10;;;9.60;99.90;;;;;;4979930;28;20509;-66
2022/04/08 16:06:35;;;;;;;8.90;8.10;;;9.30;99.90;;;;;;4978622;28;20454;-67
2022/04/08 16:09:03;;;;;;;9.70;8.70;;;9.10;99.90;;;;;;4977856;28;20533;-66
2022/04/08 16:11:30;;;;;;;8.47;7.87;;;8.90;99.90;;;;;;4977722;28;20479;-66
2022/04/08 16:13:56;;;;;;;8.03;7.40;;;8.80;99.90;;;;;;4977813;28;20461;-65
2022/04/08 16:16:23;;;;;;;7.37;6.80;;;8.60;99.90;;;;;;4978328;28;20450;-66
2022/04/08 16:18:50;;;;;;;6.87;6.20;;;8.40;99.90;;;;;;4978189;28;20458;-65
2022/04/08 16:21:18;;;;;;;8.00;7.40;;;8.20;99.90;;;;;;4977622;28;20986;-65
2022/04/08 16:23:45;;;;;;;8.60;8.00;;;8.00;99.90;;;;;;4978276;28;20487;-65
2022/04/08 16:26:13;;;;;;;9.73;8.93;;;7.90;99.90;;;;;;4977749;28;20455;-65
2022/04/08 16:28:39;;;;;;;9.67;8.77;;;7.70;99.90;;;;;;4978909;28;20838;-66
2022/04/08 16:31:07;;;;;;;10.10;9.20;;;7.50;99.90;;;;;;4978918;28;20834;-65
2022/04/08 16:33:34;;;;;;;8.53;7.83;;;7.20;99.90;;;;;;4977875;28;20521;-65
2022/04/08 16:36:00;;;;;;;8.53;7.70;;;6.90;99.90;;;;;;4977842;28;20478;-65
2022/04/08 16:38:27;;;;;;;8.33;7.27;;;6.70;99.90;;;;;;4977553;28;20462;-65
2022/04/08 16:40:54;;;;;;;5.90;5.50;;;6.60;99.90;;;;;;4978078;28;20478;-65
2022/04/08 16:43:22;;;;;;;5.43;5.13;;;6.50;99.90;;;;;;4977862;28;20458;-64
2022/04/08 16:45:49;;;;;;;5.13;4.83;;;6.40;99.90;;;;;;4977803;28;20463;-64
2022/04/08 16:48:16;;;;;;;6.20;5.70;;;6.50;99.90;;;;;;4977324;28;20990;-65
2022/04/08 16:50:43;;;;;;;5.80;5.50;;;6.50;99.90;;;;;;4978128;28;20490;-65
2022/04/08 16:53:09;;;;;;;4.40;4.10;;;6.50;99.90;;;;;;4978129;28;20474;-64
2022/04/08 16:55:36;;;;;;;4.80;4.40;;;6.50;99.90;;;;;;4977404;28;20455;-65
2022/04/08 16:58:04;;;;;;;4.97;4.67;;;6.50;99.90;;;;;;4977692;28;20451;-65